createdAt,value
2022-12-04T00:04:39.579Z,-1.3
2022-12-04T00:09:45.773Z,-1.3
2022-12-04T00:14:51.803Z,-1.3
2022-12-04T00:19:57.941Z,-1.3
2022-12-04T00:25:04.022Z,-1.3
2022-12-04T00:30:10.197Z,-1.3
2022-12-04T00:35:16.268Z,-1.3
2022-12-04T00:40:22.374Z,-1.3
2022-12-04T00:45:28.532Z,-1.3
2022-12-04T00:50:34.623Z,-1.3
2022-12-04T00:55:40.736Z,-1.3
2022-12-04T01:00:46.876Z,-1.3
2022-12-04T01:05:51.998Z,-1.3
2022-12-04T01:10:58.098Z,-1.3
2022-12-04T01:16:04.231Z,-1.3
2022-12-04T01:21:10.355Z,-1.3
2022-12-04T01:26:16.449Z,-1.3
2022-12-04T01:31:22.593Z,-1.3
2022-12-04T01:36:28.689Z,-1.3
2022-12-04T01:41:34.817Z,-1.3
2022-12-04T01:46:40.949Z,-1.3
2022-12-04T01:51:47.082Z,-1.3
2022-12-04T01:56:53.177Z,-1.3
2022-12-04T02:01:59.300Z,-1.3
2022-12-04T02:07:05.454Z,-1.3
2022-12-04T02:12:10.545Z,-1.3
2022-12-04T02:17:16.663Z,-1.3
2022-12-04T02:22:22.788Z,-1.3
2022-12-04T02:27:28.908Z,-1.2
2022-12-04T02:37:41.129Z,-1.3
2022-12-04T02:47:53.365Z,-1.3
2022-12-04T02:52:59.487Z,-1.3
2022-12-04T02:58:05.611Z,-1.3
2022-12-04T03:03:11.804Z,-1.3
2022-12-04T03:08:17.823Z,-1.3
2022-12-04T03:13:23.950Z,-1.2
2022-12-04T03:18:29.104Z,-1.2
2022-12-04T03:23:35.201Z,-1.2
2022-12-04T03:28:41.379Z,-1.2
2022-12-04T03:33:47.444Z,-1.2
2022-12-04T03:38:53.616Z,-1.2
2022-12-04T03:43:59.676Z,-1.2
2022-12-04T03:49:05.852Z,-1.2
2022-12-04T03:54:11.922Z,-1.2
2022-12-04T03:59:18.027Z,-1.2
2022-12-04T04:04:24.158Z,-1.2
2022-12-04T04:09:30.259Z,-1.2
2022-12-04T04:14:36.365Z,-1.2
2022-12-04T04:19:42.495Z,-1.2
2022-12-04T04:24:47.642Z,-1.2
2022-12-04T04:29:53.743Z,-1.2
2022-12-04T04:35:00.011Z,-1.2
2022-12-04T04:40:05.973Z,-1.2
2022-12-04T04:45:12.126Z,-1.2
2022-12-04T04:50:18.261Z,-1.2
2022-12-04T04:55:24.340Z,-1.2
2022-12-04T05:00:30.510Z,-1.2
2022-12-04T05:05:36.588Z,-1.2
2022-12-04T05:10:42.680Z,-1.2
2022-12-04T05:15:48.800Z,-1.2
2022-12-04T05:20:54.941Z,-1.2
2022-12-04T05:26:01.052Z,-1.2
2022-12-04T05:31:06.165Z,-1.1
2022-12-04T05:36:12.318Z,-1.1
2022-12-04T05:41:18.419Z,-1.1
2022-12-04T05:46:24.527Z,-1.1
2022-12-04T05:51:30.642Z,-1.1
2022-12-04T05:56:36.753Z,-1.1
2022-12-04T06:01:42.867Z,-1.1
2022-12-04T06:06:49.006Z,-1.1
2022-12-04T06:11:55.158Z,-1.1
2022-12-04T06:17:01.227Z,-1
2022-12-04T06:22:07.394Z,-1
2022-12-04T06:27:13.522Z,-1
2022-12-04T06:32:19.575Z,-1
2022-12-04T06:37:24.794Z,-1
2022-12-04T06:42:30.827Z,-1
2022-12-04T06:47:36.956Z,-1
2022-12-04T06:52:43.098Z,-0.9
2022-12-04T06:57:49.173Z,-0.9
2022-12-04T07:02:55.310Z,-0.9
2022-12-04T07:08:01.449Z,-0.9
2022-12-04T07:13:07.546Z,-0.9
2022-12-04T07:18:13.666Z,-0.9
2022-12-04T07:23:19.808Z,-0.9
2022-12-04T07:28:25.983Z,-0.8
2022-12-04T07:33:32.035Z,-0.8
2022-12-04T07:38:38.157Z,-0.8
2022-12-04T07:43:43.381Z,-0.8
2022-12-04T07:48:49.432Z,-0.8
2022-12-04T07:53:55.669Z,-0.8
2022-12-04T07:59:01.694Z,-0.7
2022-12-04T08:04:07.917Z,-0.7
2022-12-04T08:09:13.844Z,-0.7
2022-12-04T08:14:20.068Z,-0.7
2022-12-04T08:19:26.176Z,-0.7
2022-12-04T08:24:32.229Z,-0.6
2022-12-04T08:29:38.369Z,-0.6
2022-12-04T08:34:44.559Z,-0.6
2022-12-04T08:39:50.562Z,-0.6
2022-12-04T08:44:56.813Z,-0.6
2022-12-04T08:50:01.912Z,-0.6
2022-12-04T08:55:08.038Z,-0.6
2022-12-04T09:00:14.146Z,-0.5
2022-12-04T09:05:20.162Z,-0.5
2022-12-04T09:10:26.377Z,-0.5
2022-12-04T09:15:32.400Z,-0.5
2022-12-04T09:20:38.573Z,-0.5
2022-12-04T09:25:44.628Z,-0.4
2022-12-04T09:30:50.779Z,-0.5
2022-12-04T09:35:56.957Z,-0.4
2022-12-04T09:41:02.986Z,-0.4
2022-12-04T09:46:09.149Z,-0.4
2022-12-04T09:51:15.219Z,-0.4
2022-12-04T09:56:20.366Z,-0.4
2022-12-04T10:01:26.520Z,-0.3
2022-12-04T10:06:32.677Z,-0.3
2022-12-04T10:11:38.702Z,-0.3
2022-12-04T10:16:44.831Z,-0.3
2022-12-04T10:21:51.057Z,-0.3
2022-12-04T10:26:57.150Z,-0.2
2022-12-04T10:32:03.216Z,-0.2
2022-12-04T10:37:09.340Z,-0.2
2022-12-04T10:42:15.456Z,-0.2
2022-12-04T10:47:21.577Z,-0.1
2022-12-04T10:52:27.695Z,-0.1
2022-12-04T10:57:33.818Z,-0.1
2022-12-04T11:02:38.945Z,-0.1
2022-12-04T11:07:45.074Z,-0.1
2022-12-04T11:12:51.176Z,-0.1
2022-12-04T11:17:57.317Z,0
2022-12-04T11:23:03.488Z,-0.1
2022-12-04T11:28:09.544Z,-0.1
2022-12-04T11:33:15.760Z,-0.1
2022-12-04T11:38:21.770Z,-0.1
2022-12-04T11:43:27.977Z,-0.1
2022-12-04T11:48:34.009Z,-0.1
2022-12-04T11:53:40.135Z,-0.1
2022-12-04T11:58:46.258Z,-0.1
2022-12-04T12:03:52.380Z,-0.1
2022-12-04T12:08:57.730Z,-0.1
2022-12-04T12:14:03.830Z,-0.1
2022-12-04T12:19:09.945Z,0
2022-12-04T12:24:15.993Z,0
2022-12-04T12:29:21.992Z,0
2022-12-04T12:34:28.249Z,0
2022-12-04T12:39:34.248Z,0
2022-12-04T12:44:40.477Z,0
2022-12-04T12:49:46.537Z,0
2022-12-04T12:54:52.768Z,0
2022-12-04T12:59:58.820Z,0
2022-12-04T13:05:04.898Z,0
2022-12-04T13:10:11.032Z,0
2022-12-04T13:15:16.082Z,0
2022-12-04T13:20:22.171Z,0
2022-12-04T13:25:28.487Z,0
2022-12-04T13:30:34.627Z,0
2022-12-04T13:35:40.688Z,0
2022-12-04T13:40:46.645Z,0
2022-12-04T13:45:52.748Z,0
2022-12-04T13:50:58.999Z,0
2022-12-04T13:56:05.071Z,0
2022-12-04T14:01:11.208Z,0
2022-12-04T14:06:17.392Z,0
2022-12-04T14:11:23.339Z,0
2022-12-04T14:16:29.456Z,0
2022-12-04T14:21:34.603Z,0
2022-12-04T14:26:40.733Z,0
2022-12-04T14:31:46.825Z,0
2022-12-04T14:36:52.949Z,0
2022-12-04T14:41:59.071Z,0
2022-12-04T14:47:05.193Z,0
2022-12-04T14:52:11.287Z,0
2022-12-04T14:57:17.445Z,0
2022-12-04T15:02:23.517Z,0
2022-12-04T15:07:29.641Z,0
2022-12-04T15:12:35.797Z,0
2022-12-04T15:17:41.876Z,0
2022-12-04T15:22:47.999Z,0
2022-12-04T15:27:53.148Z,0
2022-12-04T15:32:59.251Z,0
2022-12-04T15:38:05.363Z,0
2022-12-04T15:43:11.496Z,0
2022-12-04T15:48:17.615Z,0
2022-12-04T15:53:23.727Z,0
2022-12-04T15:58:29.831Z,0
2022-12-04T16:03:35.951Z,0
2022-12-04T16:08:42.071Z,0
2022-12-04T16:13:48.225Z,0.1
2022-12-04T16:18:54.314Z,0.1
2022-12-04T16:24:00.470Z,0
2022-12-04T16:29:06.571Z,0.1
2022-12-04T16:34:11.696Z,0.1
2022-12-04T16:39:17.840Z,0.1
2022-12-04T16:44:23.923Z,0.1
2022-12-04T16:49:30.056Z,0.1
2022-12-04T16:54:36.213Z,0.1
2022-12-04T16:59:42.293Z,0.1
2022-12-04T17:04:47.423Z,0.1
2022-12-04T17:09:53.560Z,0.1
2022-12-04T17:14:59.689Z,0.1
2022-12-04T17:20:05.798Z,0.1
2022-12-04T17:25:11.921Z,0.2
2022-12-04T17:30:18.056Z,0.2
2022-12-04T17:35:24.149Z,0.2
2022-12-04T17:40:30.284Z,0.2
2022-12-04T17:45:36.402Z,0.2
2022-12-04T17:50:42.490Z,0.2
2022-12-04T17:55:48.616Z,0.2
2022-12-04T18:00:54.741Z,0.2
2022-12-04T18:06:00.874Z,0.2
2022-12-04T18:11:05.993Z,0.2
2022-12-04T18:16:12.102Z,0.2
2022-12-04T18:21:18.233Z,0.2
2022-12-04T18:26:24.347Z,0.2
2022-12-04T18:31:30.464Z,0.3
2022-12-04T18:36:36.593Z,0.3
2022-12-04T18:41:42.686Z,0.3
2022-12-04T18:46:48.852Z,0.3
2022-12-04T18:51:54.930Z,0.2
2022-12-04T18:57:01.064Z,0.2
2022-12-04T19:02:07.178Z,0.2
2022-12-04T19:07:13.280Z,0.2
2022-12-04T19:12:19.413Z,0.3
2022-12-04T19:17:24.537Z,0.3
2022-12-04T19:22:30.666Z,0.3
2022-12-04T19:27:36.777Z,0.3
2022-12-04T19:32:42.907Z,0.3
2022-12-04T19:37:49.030Z,0.3
2022-12-04T19:42:55.137Z,0.3
2022-12-04T19:48:01.267Z,0.4
2022-12-04T19:53:07.379Z,0.4
2022-12-04T19:58:13.493Z,0.4
2022-12-04T20:03:19.616Z,0.4
2022-12-04T20:08:25.728Z,0.4
2022-12-04T20:13:31.863Z,0.5
2022-12-04T20:18:37.964Z,0.5
2022-12-04T20:23:43.101Z,0.5
2022-12-04T20:28:49.231Z,0.5
2022-12-04T20:33:55.353Z,0.6
2022-12-04T20:39:01.466Z,0.6
2022-12-04T20:44:07.589Z,0.6
2022-12-04T20:49:13.708Z,0.6
2022-12-04T20:54:19.819Z,0.6
2022-12-04T20:59:25.943Z,0.6
2022-12-04T21:04:32.055Z,0.6
2022-12-04T21:09:38.166Z,0.7
2022-12-04T21:14:44.279Z,0.7
2022-12-04T21:19:50.418Z,0.7
2022-12-04T21:24:56.536Z,0.7
2022-12-04T21:30:01.657Z,0.7
2022-12-04T21:35:07.786Z,0.7
2022-12-04T21:40:13.908Z,0.7
2022-12-04T21:45:20.022Z,0.7
2022-12-04T21:50:26.127Z,0.7
2022-12-04T21:55:32.266Z,0.8
2022-12-04T22:00:38.373Z,0.8
2022-12-04T22:05:44.481Z,0.8
2022-12-04T22:10:50.612Z,0.8
2022-12-04T22:15:56.742Z,0.9
2022-12-04T22:21:02.835Z,0.9
2022-12-04T22:26:08.969Z,0.9
2022-12-04T22:31:15.083Z,0.9
2022-12-04T22:36:20.219Z,0.9
2022-12-04T22:41:26.335Z,1
2022-12-04T22:46:32.469Z,1
2022-12-04T22:51:38.580Z,1
2022-12-04T22:56:44.701Z,1
2022-12-04T23:01:50.796Z,1
2022-12-04T23:06:56.915Z,1
2022-12-04T23:12:03.042Z,1
2022-12-04T23:17:09.159Z,1
2022-12-04T23:22:15.276Z,1
2022-12-04T23:27:21.405Z,1.1
2022-12-04T23:32:27.541Z,1
2022-12-04T23:37:33.641Z,1.1
2022-12-04T23:42:38.766Z,1.2
2022-12-04T23:47:44.891Z,1.2
2022-12-04T23:52:51.006Z,1.2
2022-12-04T23:57:57.126Z,1.2
